Jim Hamilton L.B. Owens Airport
KCUB : now visible

Airfield :











YOU CAN JOIN US ON...

 
LOGIN :

Register | Disclaimer

   EN    FR    IT 

 









Legend :    VFR   Marginal VFR   IFR   Intensive IFR   Very Intensive IFR
Visi :
Ceiling :
>= 8 km
>= 3000ft
5 to 8 km
1000 to 3000 ft
1500m to 5 km
500 to 1000 ft
800 to 1500m
200 to 500 ft
< 800m
< 200 ft
Symbols :   Thunderstorms  Fog  Heavy snow  Heavy precipitations  Wind > 20 kt







- Airport Elevation : 193 ft


KCUB - Jim Hamilton L.B. Owens

CURRENT METAR :
  • 181053Z AUTO 27003KT 10SM CLR 26/21 A3003 RMK AO2 SLP165 T02560206

EXPIRED METARs :
  • 180953Z AUTO 00000KT 10SM CLR 24/21 A3002 RMK AO2 SLP161 T02440206
  • 180853Z AUTO 22003KT 10SM CLR 25/21 A3002 RMK AO2 SLP161 T02500206 56005

TAF KCUB
Valid from the 18 at 09:00 until the 19 at 06:00 UTC


180910Z 1809/1906 VRB03KT P6SM SCT150
FM181400 25007KT P6SM SCT040
FM181900 24010KT P6SM VCTS BKN050CB
TEMPO 1820/1823 TSRA
FM190100 VRB05KT P6SM SCT060 BKN150
KZJX FIR / North America



MET'MAP, your aeronautical weather chart ! - Copyright ORBIFLY December 2007 - Disclaimer

ORBIFLY MET'MAP TEAM :

Programming & Development : Alexandra Zaïnal
Concept & Development : Baudouin d'Aumeries
Co-Development & Prog : Marc-Olivier Méhu
Technical & hardware support : Manuel Goepfert

Contact : metmap@orbifly.com




SOURCES & CREDITS :

   NOAA       Earth
Advisory